Mansfield, Missouri
Current Conditions -  °F | °C
As of 9:53 PM on Sunday 21 Dec 2014 (Local Time) from KUNO Reporting Station
Overcast Overcast  
Wind Chill: 35°   Ceiling: 7000
Heat Index: 39°   Visibility: 10mi
Dew Point: 33°   Wind: 6mph
Humidity: 79%   Direction: 100°E
Pressure: 29.91"   Gusts: NA
Location:  37.11°N, 92.58°W
Report Text: KUNO 220353Z AUTO 10005KT 10SM FEW050 OVC070 04/01 A2991 RMK AO2 SLP132 T00390006 $
Loading
Personal Weather Stations






























Interactive Weather Map New forecast layout! Learn more

10-Day Weather Forecast

Advertisements
Track Severe Weather on mobile